NCAR-RAP Real-Time Weather Data

Output produced by METARs form (21 April 2018  09:46 UTC)
found at http://weather.rap.ucar.edu/surface/
 
Conditions at: KPIE observed 21 April 2018  09:37 UTC
Temperature: 20.6°C (69°F)
Dewpoint: 18.3°C (65°F) [RH = 87%]
Pressure (altimeter): 30.10 inches Hg (1019.4 mb)
Winds: from the ENE (60 degrees) at 9 MPH (8 knots; 4.2 m/s)
Visibility: 7 miles (11 km)
Ceiling: 1700 feet AGL
Clouds: scattered clouds at 900 feet AGL
overcast cloud deck at 1700 feet AGL
Present Weather: automated observation with no human augmentation;
there may or may not be significant weather present at this time
KPIE 210937Z AUTO 06008KT 7SM SCT009 OVC017 21/18 A3010 RMK AO2 T02060183

Conditions at: KPIE observed 21 April 2018  08:53 UTC
Temperature: 20.0°C (68°F)
Dewpoint: 18.3°C (65°F) [RH = 90%]
Pressure (altimeter): 30.10 inches Hg (1019.4 mb)
[Sea-level pressure: 1019.1 mb]
Winds: from the ENE (70 degrees) at 12 MPH (10 knots; 5.2 m/s)
Visibility: 6 miles (10 km)
Ceiling: 1900 feet AGL
Clouds: scattered clouds at 1000 feet AGL
broken clouds at 1900 feet AGL
Present Weather: BR  (mist)
KPIE 210853Z AUTO 07010KT 6SM BR SCT010 BKN019 20/18 A3010 RMK AO2 SLP191 T02000183 56004

Conditions at: KPIE observed 21 April 2018  08:35 UTC
Temperature: 20.0°C (68°F)
Dewpoint: 17.8°C (64°F) [RH = 87%]
Pressure (altimeter): 30.10 inches Hg (1019.4 mb)
Winds: from the ENE (60 degrees) at 10 MPH (9 knots; 4.7 m/s)
Visibility: 6 miles (10 km)
Ceiling: 1000 feet AGL
Clouds: broken clouds at 1000 feet AGL
overcast cloud deck at 1800 feet AGL
Present Weather: BR  (mist)
KPIE 210835Z AUTO 06009KT 6SM BR BKN010 OVC018 20/18 A3010 RMK AO2 T02000178

Conditions at: KPIE observed 21 April 2018  07:53 UTC
Temperature: 19.4°C (67°F)
Dewpoint: 17.8°C (64°F) [RH = 90%]
Pressure (altimeter): 30.10 inches Hg (1019.4 mb)
[Sea-level pressure: 1019.3 mb]
Winds: from the NE (50 degrees) at 10 MPH (9 knots; 4.7 m/s)
Visibility: 7 miles (11 km)
Ceiling: 1500 feet AGL
Clouds: scattered clouds at 1000 feet AGL
overcast cloud deck at 1500 feet AGL
Present Weather: automated observation with no human augmentation;
there may or may not be significant weather present at this time
KPIE 210753Z AUTO 05009KT 7SM SCT010 OVC015 19/18 A3010 RMK AO2 SLP193 T01940178

Conditions at: KPIE observed 21 April 2018  06:53 UTC
Temperature: 20.0°C (68°F)
Dewpoint: 17.8°C (64°F) [RH = 87%]
Pressure (altimeter): 30.11 inches Hg (1019.7 mb)
[Sea-level pressure: 1019.6 mb]
Winds: from the ENE (60 degrees) at 12 MPH (10 knots; 5.2 m/s)
Visibility: 7 miles (11 km)
Ceiling: 1200 feet AGL
Clouds: broken clouds at 1200 feet AGL
broken clouds at 4500 feet AGL
Present Weather: automated observation with no human augmentation;
there may or may not be significant weather present at this time
KPIE 210653Z AUTO 06010KT 7SM BKN012 BKN045 20/18 A3011 RMK AO2 SLP196 T02000178

Conditions at: KPIE observed 21 April 2018  06:11 UTC
Temperature: 20.0°C (68°F)
Dewpoint: 17.8°C (64°F) [RH = 87%]
Pressure (altimeter): 30.13 inches Hg (1020.4 mb)
Winds: from the NE (50 degrees) at 13 MPH (11 knots; 5.7 m/s)
Visibility: 8 miles (13 km)
Ceiling: 4700 feet AGL
Clouds: scattered clouds at 1300 feet AGL
broken clouds at 4700 feet AGL
Present Weather: automated observation with no human augmentation;
there may or may not be significant weather present at this time
KPIE 210611Z AUTO 05011KT 8SM SCT013 BKN047 20/18 A3013 RMK AO2 T02000178

Conditions at: KPIE observed 21 April 2018  05:53 UTC
Temperature: 20.0°C (68°F)
Dewpoint: 17.8°C (64°F) [RH = 87%]
Pressure (altimeter): 30.14 inches Hg (1020.7 mb)
[Sea-level pressure: 1020.6 mb]
Winds: from the ENE (60 degrees) at 14 MPH (12 knots; 6.2 m/s)
Visibility: 9 miles (14 km)
Ceiling: 1400 feet AGL
Clouds: broken clouds at 1400 feet AGL
Present Weather: automated observation with no human augmentation;
there may or may not be significant weather present at this time
KPIE 210553Z AUTO 06012KT 9SM BKN014 20/18 A3014 RMK AO2 SLP206 T02000178 10233 20200 53000

Conditions at: KPIE observed 21 April 2018  05:49 UTC
Temperature: 20.0°C (68°F)
Dewpoint: 18.0°C (64°F) [RH = 88%]
Pressure (altimeter): 30.14 inches Hg (1020.7 mb)
Winds: from the ENE (60 degrees) at 12 MPH (10 knots; 5.2 m/s)
Visibility: 9 miles (14 km)
Ceiling: 1400 feet AGL
Clouds: broken clouds at 1400 feet AGL
Present Weather: automated observation with no human augmentation;
there may or may not be significant weather present at this time
KPIE 210549Z AUTO 06010KT 9SM BKN014 20/18 A3014 RMK AO2

Conditions at: KPIE observed 21 April 2018  05:11 UTC
Temperature: 20.6°C (69°F)
Dewpoint: 17.8°C (64°F) [RH = 84%]
Pressure (altimeter): 30.14 inches Hg (1020.7 mb)
Winds: from the NE (50 degrees) at 13 MPH (11 knots; 5.7 m/s)
Visibility: 9 miles (14 km)
Ceiling: 1500 feet AGL
Clouds: broken clouds at 1500 feet AGL
broken clouds at 4500 feet AGL
Present Weather: automated observation with no human augmentation;
there may or may not be significant weather present at this time
KPIE 210511Z AUTO 05011KT 9SM BKN015 BKN045 21/18 A3014 RMK AO2 T02060178

Conditions at: KPIE observed 21 April 2018  04:53 UTC
Temperature: 20.6°C (69°F)
Dewpoint: 17.8°C (64°F) [RH = 84%]
Pressure (altimeter): 30.14 inches Hg (1020.7 mb)
[Sea-level pressure: 1020.5 mb]
Winds: from the ENE (60 degrees) at 14 MPH (12 knots; 6.2 m/s)
gusting to 21 MPH (18 knots; 9.4 m/s)
Visibility: 10 or more miles (16+ km)
Ceiling: 4400 feet AGL
Clouds: scattered clouds at 1500 feet AGL
broken clouds at 4400 feet AGL
Present Weather: automated observation with no human augmentation;
there may or may not be significant weather present at this time
KPIE 210453Z AUTO 06012G18KT 10SM SCT015 BKN044 21/18 A3014 RMK AO2 SLP205 T02060178 402830167

Conditions at: KPIE observed 21 April 2018  04:11 UTC
Temperature: 21.1°C (70°F)
Dewpoint: 17.8°C (64°F) [RH = 81%]
Pressure (altimeter): 30.14 inches Hg (1020.7 mb)
Winds: from the NE (50 degrees) at 14 MPH (12 knots; 6.2 m/s)
Visibility: 10 or more miles (16+ km)
Ceiling: 4100 feet AGL
Clouds: scattered clouds at 1700 feet AGL
overcast cloud deck at 4100 feet AGL
Present Weather: automated observation with no human augmentation;
there may or may not be significant weather present at this time
KPIE 210411Z AUTO 05012KT 10SM SCT017 OVC041 21/18 A3014 RMK AO2 T02110178

Conditions at: KPIE observed 21 April 2018  03:53 UTC
Temperature: 21.1°C (70°F)
Dewpoint: 17.8°C (64°F) [RH = 81%]
Pressure (altimeter): 30.14 inches Hg (1020.7 mb)
[Sea-level pressure: 1020.6 mb]
Winds: from the NE (50 degrees) at 14 MPH (12 knots; 6.2 m/s)
Visibility: 10 or more miles (16+ km)
Ceiling: 1700 feet AGL
Clouds: broken clouds at 1700 feet AGL
overcast cloud deck at 4100 feet AGL
Present Weather: automated observation with no human augmentation;
there may or may not be significant weather present at this time
KPIE 210353Z AUTO 05012KT 10SM BKN017 OVC041 21/18 A3014 RMK AO2 SLP206 T02110178

Conditions at: KPIE observed 21 April 2018  03:42 UTC
Temperature: 21.1°C (70°F)
Dewpoint: 17.8°C (64°F) [RH = 81%]
Pressure (altimeter): 30.14 inches Hg (1020.7 mb)
Winds: from the NE (50 degrees) at 15 MPH (13 knots; 6.8 m/s)
gusting to 22 MPH (19 knots; 9.9 m/s)
Visibility: 10 or more miles (16+ km)
Ceiling: 1700 feet AGL
Clouds: broken clouds at 1700 feet AGL
overcast cloud deck at 4300 feet AGL
Present Weather: no significant weather observed at this time
KPIE 210342Z 05013G19KT 10SM BKN017 OVC043 21/18 A3014 RMK AO2 T02110178

Conditions at: KPIE observed 21 April 2018  03:08 UTC
Temperature: 21.7°C (71°F)
Dewpoint: 18.3°C (65°F) [RH = 81%]
Pressure (altimeter): 30.13 inches Hg (1020.4 mb)
Winds: from the ENE (60 degrees) at 12 MPH (10 knots; 5.2 m/s)
gusting to 22 MPH (19 knots; 9.9 m/s)
Visibility: 10 or more miles (16+ km)
Ceiling: 4300 feet AGL
Clouds: scattered clouds at 2200 feet AGL
scattered clouds at 3300 feet AGL
overcast cloud deck at 4300 feet AGL
Present Weather: no significant weather observed at this time
KPIE 210308Z 06010G19KT 10SM SCT022 SCT033 OVC043 22/18 A3013 RMK AO2 T02170183

Conditions at: KPIE observed 21 April 2018  02:53 UTC
Temperature: 22.2°C (72°F)
Dewpoint: 18.3°C (65°F) [RH = 79%]
Pressure (altimeter): 30.14 inches Hg (1020.7 mb)
[Sea-level pressure: 1020.4 mb]
Winds: from the NE (40 degrees) at 15 MPH (13 knots; 6.8 m/s)
gusting to 24 MPH (21 knots; 10.9 m/s)
Visibility: 10 or more miles (16+ km)
Ceiling: 2200 feet AGL
Clouds: broken clouds at 2200 feet AGL
overcast cloud deck at 4100 feet AGL
Present Weather: no significant weather observed at this time
KPIE 210253Z 04013G21KT 10SM BKN022 OVC041 22/18 A3014 RMK AO2 SLP204 T02220183 51014

Conditions at: KPIE observed 21 April 2018  02:28 UTC
Temperature: 22.8°C (73°F)
Dewpoint: 18.3°C (65°F) [RH = 76%]
Pressure (altimeter): 30.14 inches Hg (1020.7 mb)
Winds: from the NE (50 degrees) at 15 MPH (13 knots; 6.8 m/s)
Visibility: 10 or more miles (16+ km)
Ceiling: 2300 feet AGL
Clouds: broken clouds at 2300 feet AGL
overcast cloud deck at 3400 feet AGL
Present Weather: no significant weather observed at this time
KPIE 210228Z 05013KT 10SM BKN023 OVC034 23/18 A3014 RMK AO2 T02280183

Conditions at: KPIE observed 21 April 2018  01:53 UTC
Temperature: 23.3°C (74°F)
Dewpoint: 18.9°C (66°F) [RH = 76%]
Pressure (altimeter): 30.13 inches Hg (1020.4 mb)
[Sea-level pressure: 1020.2 mb]
Winds: from the N (360 degrees) at 8 MPH (7 knots; 3.6 m/s)
Visibility: 10 or more miles (16+ km)
Ceiling: 3500 feet AGL
Clouds: overcast cloud deck at 3500 feet AGL
Present Weather: no significant weather observed at this time
KPIE 210153Z 36007KT 10SM OVC035 23/19 A3013 RMK AO2 SLP202 T02330189

Conditions at: KPIE observed 21 April 2018  00:53 UTC
Temperature: 22.8°C (73°F)
Dewpoint: 18.3°C (65°F) [RH = 76%]
Pressure (altimeter): 30.10 inches Hg (1019.4 mb)
[Sea-level pressure: 1019.4 mb]
Winds: from the NW (320 degrees) at 8 MPH (7 knots; 3.6 m/s)
Visibility: 10 or more miles (16+ km)
Ceiling: 4200 feet AGL
Clouds: broken clouds at 4200 feet AGL
Present Weather: no significant weather observed at this time
KPIE 210053Z 32007KT 10SM BKN042 23/18 A3010 RMK AO2 SLP194 T02280183

Conditions at: KPIE observed 20 April 2018  23:53 UTC
Temperature: 23.3°C (74°F)
Dewpoint: 17.2°C (63°F) [RH = 69%]
Pressure (altimeter): 30.10 inches Hg (1019.4 mb)
[Sea-level pressure: 1019.1 mb]
Winds: from the WNW (300 degrees) at 9 MPH (8 knots; 4.2 m/s)
Visibility: 10 or more miles (16+ km)
Ceiling: at least 12,000 feet AGL
Clouds: sky clear below 12,000 feet AGL
Present Weather: no significant weather observed at this time
KPIE 202353Z 30008KT 10SM CLR 23/17 A3010 RMK AO2 SLP191 T02330172 10283 20233 51003

Conditions at: KPIE observed 20 April 2018  22:53 UTC
Temperature: 25.0°C (77°F)
Dewpoint: 16.7°C (62°F) [RH = 60%]
Pressure (altimeter): 30.09 inches Hg (1019.0 mb)
[Sea-level pressure: 1018.9 mb]
Winds: from the WNW (290 degrees) at 10 MPH (9 knots; 4.7 m/s)
Visibility: 10 or more miles (16+ km)
Ceiling: at least 12,000 feet AGL
Clouds: sky clear below 12,000 feet AGL
Present Weather: no significant weather observed at this time
KPIE 202253Z 29009KT 10SM CLR 25/17 A3009 RMK AO2 SLP189 T02500167

Conditions at: KPIE observed 20 April 2018  21:53 UTC
Temperature: 26.1°C (79°F)
Dewpoint: 16.1°C (61°F) [RH = 54%]
Pressure (altimeter): 30.10 inches Hg (1019.4 mb)
[Sea-level pressure: 1019.1 mb]
Winds: from the W (270 degrees) at 7 MPH (6 knots; 3.1 m/s)
Visibility: 10 or more miles (16+ km)
Ceiling: at least 12,000 feet AGL
Clouds: sky clear below 12,000 feet AGL
Present Weather: no significant weather observed at this time
KPIE 202153Z 27006KT 10SM CLR 26/16 A3010 RMK AO2 SLP191 T02610161

Conditions at: KPIE observed 20 April 2018  20:53 UTC
Temperature: 26.7°C (80°F)
Dewpoint: 17.2°C (63°F) [RH = 56%]
Pressure (altimeter): 30.09 inches Hg (1019.0 mb)
[Sea-level pressure: 1018.8 mb]
Winds: variable direction winds at 6 MPH (5 knots; 2.6 m/s)
Visibility: 10 or more miles (16+ km)
Ceiling: at least 12,000 feet AGL
Clouds: sky clear below 12,000 feet AGL
Present Weather: no significant weather observed at this time
KPIE 202053Z VRB05KT 10SM CLR 27/17 A3009 RMK AO2 SLP188 T02670172 57015

Conditions at: KPIE observed 20 April 2018  19:53 UTC
Temperature: 28.3°C (83°F)
Dewpoint: 17.8°C (64°F) [RH = 53%]
Pressure (altimeter): 30.10 inches Hg (1019.4 mb)
[Sea-level pressure: 1019.2 mb]
Winds: from the NNW (330 degrees) at 9 MPH (8 knots; 4.2 m/s)
Visibility: 10 or more miles (16+ km)
Ceiling: at least 12,000 feet AGL
Clouds: scattered clouds at 4500 feet AGL
Present Weather: no significant weather observed at this time
KPIE 201953Z 33008KT 10SM SCT045 28/18 A3010 RMK AO2 SLP192 T02830178

Conditions at: KPIE observed 20 April 2018  18:53 UTC
Temperature: 27.2°C (81°F)
Dewpoint: 15.0°C (59°F) [RH = 47%]
Pressure (altimeter): 30.12 inches Hg (1020.1 mb)
[Sea-level pressure: 1019.8 mb]
Winds: calm
Visibility: 10 or more miles (16+ km)
Ceiling: at least 12,000 feet AGL
Clouds: scattered clouds at 4300 feet AGL
Present Weather: no significant weather observed at this time
KPIE 201853Z 00000KT 10SM SCT043 27/15 A3012 RMK AO2 SLP198 T02720150

Conditions at: KPIE observed 20 April 2018  17:53 UTC
Temperature: 26.7°C (80°F)
Dewpoint: 15.6°C (60°F) [RH = 51%]
Pressure (altimeter): 30.13 inches Hg (1020.4 mb)
[Sea-level pressure: 1020.2 mb]
Winds: variable direction winds at 5 MPH (4 knots; 2.1 m/s)
Visibility: 10 or more miles (16+ km)
Ceiling: at least 12,000 feet AGL
Clouds: few clouds at 4100 feet AGL
Present Weather: no significant weather observed at this time
KPIE 201753Z VRB04KT 10SM FEW041 27/16 A3013 RMK AO2 SLP202 T02670156 10267 20183 58003

Conditions at: KPIE observed 20 April 2018  16:53 UTC
Temperature: 25.6°C (78°F)
Dewpoint: 15.6°C (60°F) [RH = 54%]
Pressure (altimeter): 30.13 inches Hg (1020.4 mb)
[Sea-level pressure: 1020.3 mb]
Winds: from the ENE (60 degrees) at 6 MPH (5 knots; 2.6 m/s)
Visibility: 10 or more miles (16+ km)
Ceiling: at least 12,000 feet AGL
Clouds: scattered clouds at 4300 feet AGL
Present Weather: no significant weather observed at this time
KPIE 201653Z 06005KT 10SM SCT043 26/16 A3013 RMK AO2 SLP203 T02560156

Conditions at: KPIE observed 20 April 2018  15:53 UTC
Temperature: 25.0°C (77°F)
Dewpoint: 17.2°C (63°F) [RH = 62%]
Pressure (altimeter): 30.14 inches Hg (1020.7 mb)
[Sea-level pressure: 1020.5 mb]
Winds: from the ENE (60 degrees) at 7 MPH (6 knots; 3.1 m/s)
Visibility: 10 or more miles (16+ km)
Ceiling: at least 12,000 feet AGL
Clouds: scattered clouds at 1600 feet AGL
Present Weather: no significant weather observed at this time
KPIE 201553Z 06006KT 10SM SCT016 25/17 A3014 RMK AO2 SLP205 T02500172

Conditions at: KPIE observed 20 April 2018  14:53 UTC
Temperature: 23.9°C (75°F)
Dewpoint: 18.3°C (65°F) [RH = 71%]
Pressure (altimeter): 30.14 inches Hg (1020.7 mb)
[Sea-level pressure: 1020.5 mb]
Winds: from the NE (50 degrees) at 7 MPH (6 knots; 3.1 m/s)
Visibility: 8 miles (13 km)
Ceiling: at least 12,000 feet AGL
Clouds: scattered clouds at 3000 feet AGL
Present Weather: no significant weather observed at this time
KPIE 201453Z 05006KT 8SM SCT030 24/18 A3014 RMK AO2 SLP205 T02390183 51007

Conditions at: KPIE observed 20 April 2018  13:53 UTC
Temperature: 23.3°C (74°F)
Dewpoint: 18.9°C (66°F) [RH = 76%]
Pressure (altimeter): 30.13 inches Hg (1020.4 mb)
[Sea-level pressure: 1020.3 mb]
Winds: from the NE (50 degrees) at 5 MPH (4 knots; 2.1 m/s)
Visibility: 10 or more miles (16+ km)
Ceiling: at least 12,000 feet AGL
Clouds: scattered clouds at 3300 feet AGL
Present Weather: no significant weather observed at this time
KPIE 201353Z 05004KT 10SM SCT033 23/19 A3013 RMK AO2 SLP203 T02330189

Conditions at: KPIE observed 20 April 2018  12:53 UTC
Temperature: 21.7°C (71°F)
Dewpoint: 19.4°C (67°F) [RH = 87%]
Pressure (altimeter): 30.13 inches Hg (1020.4 mb)
[Sea-level pressure: 1020.2 mb]
Winds: calm
Visibility: 10 or more miles (16+ km)
Ceiling: at least 12,000 feet AGL
Clouds: scattered clouds at 2000 feet AGL
Present Weather: no significant weather observed at this time
KPIE 201253Z 00000KT 10SM SCT020 22/19 A3013 RMK AO2 SLP202 T02170194

Conditions at: KPIE observed 20 April 2018  11:53 UTC
Temperature: 18.3°C (65°F)
Dewpoint: 17.8°C (64°F) [RH = 97%]
Pressure (altimeter): 30.12 inches Hg (1020.1 mb)
[Sea-level pressure: 1019.8 mb]
Winds: calm
Visibility: 7 miles (11 km)
Ceiling: at least 12,000 feet AGL
Clouds: scattered clouds at 2000 feet AGL
Present Weather: no significant weather observed at this time
KPIE 201153Z 00000KT 7SM SCT020 18/18 A3012 RMK AO2 SLP198 60000 T01830178 10183 20167 53017

Conditions at: KPIE observed 20 April 2018  10:53 UTC
Temperature: 16.7°C (62°F)
Dewpoint: 16.1°C (61°F) [RH = 96%]
Pressure (altimeter): 30.08 inches Hg (1018.7 mb)
[Sea-level pressure: 1018.6 mb]
Winds: calm
Visibility: 10 or more miles (16+ km)
Ceiling: at least 12,000 feet AGL
Clouds: sky clear below 12,000 feet AGL
Present Weather: no significant weather observed at this time
KPIE 201053Z 00000KT 10SM CLR 17/16 A3008 RMK AO2 RAB29E40 SLP186 P0000 T01670161

Conditions at: KPIE observed 20 April 2018  09:53 UTC
Temperature: 17.2°C (63°F)
Dewpoint: 16.7°C (62°F) [RH = 97%]
Pressure (altimeter): 30.07 inches Hg (1018.4 mb)
[Sea-level pressure: 1018.2 mb]
Winds: from the WNW (300 degrees) at 3 MPH (3 knots; 1.6 m/s)
Visibility: 10 or more miles (16+ km)
Ceiling: at least 12,000 feet AGL
Clouds: sky clear below 12,000 feet AGL
Present Weather: no significant weather observed at this time
KPIE 200953Z 30003KT 10SM CLR 17/17 A3007 RMK AO2 SLP182 T01720167